Terminal Aerodrome Forecast
Issued by NWS Mt. Holly, NJ

Home | Current Version | Previous Version | Text Only | Print | Product List | Glossary On
Versions: 1 2 3 4 5 6 7 8 9 10 11 12 13 14 15 16 17
018
FTUS41 KPHI 232348
TAFILG
TAF
KILG 232348Z 2400/2424 25006KT P6SM SCT250
     FM240100 VRB03KT P6SM SCT250
     FM241100 17007KT P6SM BKN250
     FM241500 19010G18KT P6SM SCT050 OVC090 PROB30 2416/2418 6SM -RA
      BKN040
     FM242000 21014G24KT P6SM SCT050 OVC120
     FM242300 20010KT P6SM SCT040 BKN150=

USA.gov is the U.S. government's official web portal to all federal, state and local government web resources and services.